Albia, New York
Current Conditions -  °F | °C
As of 10:51 PM on Wednesday 17 Dec 2014 (Local Time) from KALB Reporting Station
Overcast Overcast  
Wind Chill: 30°   Ceiling: 3500
Heat Index: 37°   Visibility: 10mi
Dew Point: 29°   Wind: 10mph
Humidity: 73%   Direction: 280°W
Pressure: 29.85"   Gusts: NA
Location:  42.7478°N, 73.6049°W
Report Text: KALB 180351Z 28009KT 10SM SCT027 BKN035 OVC047 03/M02 A2985 RMK AO2 RAE38 SLP109 P0000 T00281017
Loading
Personal Weather Stations






























Interactive Weather Map New forecast layout! Learn more

10-Day Weather Forecast

Advertisements
Track Severe Weather on mobile